sensor_id;sensor_type;location;lat;lon;timestamp;P1;durP1;ratioP1;P2;durP2;ratioP2
40959;SDS011;27842;52.272;8.052;2023-04-23T00:00:02;27.05;;;18.17;;
40959;SDS011;27842;52.272;8.052;2023-04-23T00:02:30;27.13;;;18.50;;
40959;SDS011;27842;52.272;8.052;2023-04-23T00:04:58;26.80;;;17.35;;
40959;SDS011;27842;52.272;8.052;2023-04-23T00:07:28;26.90;;;17.52;;
40959;SDS011;27842;52.272;8.052;2023-04-23T00:09:57;27.67;;;17.58;;
40959;SDS011;27842;52.272;8.052;2023-04-23T00:12:23;26.02;;;17.75;;
40959;SDS011;27842;52.272;8.052;2023-04-23T00:14:49;29.75;;;19.67;;
40959;SDS011;27842;52.272;8.052;2023-04-23T00:17:15;28.13;;;20.02;;
40959;SDS011;27842;52.272;8.052;2023-04-23T00:19:40;29.10;;;19.83;;
40959;SDS011;27842;52.272;8.052;2023-04-23T00:22:06;32.00;;;21.60;;
40959;SDS011;27842;52.272;8.052;2023-04-23T00:24:32;29.20;;;20.10;;
40959;SDS011;27842;52.272;8.052;2023-04-23T00:27:00;29.88;;;19.90;;
40959;SDS011;27842;52.272;8.052;2023-04-23T00:29:26;31.60;;;21.70;;
40959;SDS011;27842;52.272;8.052;2023-04-23T00:31:51;32.42;;;21.63;;
40959;SDS011;27842;52.272;8.052;2023-04-23T00:34:17;29.98;;;19.80;;
40959;SDS011;27842;52.272;8.052;2023-04-23T00:36:42;30.33;;;20.05;;
40959;SDS011;27842;52.272;8.052;2023-04-23T00:39:08;28.45;;;19.45;;
40959;SDS011;27842;52.272;8.052;2023-04-23T00:41:35;28.92;;;20.00;;
40959;SDS011;27842;52.272;8.052;2023-04-23T00:44:01;30.50;;;21.02;;
40959;SDS011;27842;52.272;8.052;2023-04-23T00:46:27;30.38;;;20.50;;
40959;SDS011;27842;52.272;8.052;2023-04-23T00:48:53;29.65;;;21.55;;
40959;SDS011;27842;52.272;8.052;2023-04-23T00:51:20;28.20;;;19.70;;
40959;SDS011;27842;52.272;8.052;2023-04-23T00:53:47;31.55;;;20.95;;
40959;SDS011;27842;52.272;8.052;2023-04-23T00:56:13;30.48;;;20.88;;
40959;SDS011;27842;52.272;8.052;2023-04-23T00:58:39;28.33;;;19.20;;
40959;SDS011;27842;52.272;8.052;2023-04-23T01:01:05;30.35;;;20.88;;
40959;SDS011;27842;52.272;8.052;2023-04-23T01:03:31;28.63;;;20.77;;
40959;SDS011;27842;52.272;8.052;2023-04-23T01:08:25;29.67;;;20.00;;
40959;SDS011;27842;52.272;8.052;2023-04-23T01:10:52;28.95;;;19.42;;
40959;SDS011;27842;52.272;8.052;2023-04-23T01:13:18;28.60;;;19.77;;
40959;SDS011;27842;52.272;8.052;2023-04-23T01:15:46;31.85;;;21.33;;
40959;SDS011;27842;52.272;8.052;2023-04-23T01:18:11;30.50;;;20.23;;
40959;SDS011;27842;52.272;8.052;2023-04-23T01:20:38;29.05;;;19.83;;
40959;SDS011;27842;52.272;8.052;2023-04-23T01:23:04;28.70;;;20.80;;
40959;SDS011;27842;52.272;8.052;2023-04-23T01:25:30;29.25;;;20.55;;
40959;SDS011;27842;52.272;8.052;2023-04-23T01:27:56;29.25;;;19.85;;
40959;SDS011;27842;52.272;8.052;2023-04-23T01:30:23;29.80;;;21.27;;
40959;SDS011;27842;52.272;8.052;2023-04-23T01:32:51;28.67;;;20.40;;
40959;SDS011;27842;52.272;8.052;2023-04-23T01:35:18;29.27;;;20.15;;
40959;SDS011;27842;52.272;8.052;2023-04-23T01:37:43;29.67;;;21.17;;
40959;SDS011;27842;52.272;8.052;2023-04-23T01:40:11;29.40;;;20.33;;
40959;SDS011;27842;52.272;8.052;2023-04-23T01:42:37;28.65;;;19.40;;
40959;SDS011;27842;52.272;8.052;2023-04-23T01:45:03;30.35;;;21.38;;
40959;SDS011;27842;52.272;8.052;2023-04-23T01:47:32;28.75;;;20.35;;
40959;SDS011;27842;52.272;8.052;2023-04-23T01:49:59;29.48;;;21.35;;
40959;SDS011;27842;52.272;8.052;2023-04-23T01:52:24;30.80;;;21.63;;
40959;SDS011;27842;52.272;8.052;2023-04-23T01:54:50;28.52;;;20.73;;
40959;SDS011;27842;52.272;8.052;2023-04-23T01:57:17;29.67;;;20.48;;
40959;SDS011;27842;52.272;8.052;2023-04-23T01:59:48;29.48;;;21.08;;
40959;SDS011;27842;52.272;8.052;2023-04-23T02:02:14;31.95;;;22.77;;
40959;SDS011;27842;52.272;8.052;2023-04-23T02:04:40;31.52;;;22.75;;
40959;SDS011;27842;52.272;8.052;2023-04-23T02:07:08;31.30;;;23.13;;
40959;SDS011;27842;52.272;8.052;2023-04-23T02:09:34;31.70;;;22.75;;
40959;SDS011;27842;52.272;8.052;2023-04-23T02:12:00;30.30;;;21.67;;
40959;SDS011;27842;52.272;8.052;2023-04-23T02:14:26;31.10;;;22.48;;
40959;SDS011;27842;52.272;8.052;2023-04-23T02:16:52;32.55;;;23.00;;
40959;SDS011;27842;52.272;8.052;2023-04-23T02:19:19;33.08;;;23.80;;
40959;SDS011;27842;52.272;8.052;2023-04-23T02:21:45;32.58;;;23.73;;
40959;SDS011;27842;52.272;8.052;2023-04-23T02:24:11;33.45;;;24.33;;
40959;SDS011;27842;52.272;8.052;2023-04-23T02:26:37;34.55;;;23.55;;
40959;SDS011;27842;52.272;8.052;2023-04-23T02:29:02;30.10;;;21.98;;
40959;SDS011;27842;52.272;8.052;2023-04-23T02:31:28;32.35;;;23.23;;
40959;SDS011;27842;52.272;8.052;2023-04-23T02:33:53;31.52;;;22.55;;
40959;SDS011;27842;52.272;8.052;2023-04-23T02:36:19;32.47;;;23.85;;
40959;SDS011;27842;52.272;8.052;2023-04-23T02:38:44;32.13;;;23.17;;
40959;SDS011;27842;52.272;8.052;2023-04-23T02:41:12;33.00;;;23.50;;
40959;SDS011;27842;52.272;8.052;2023-04-23T02:43:38;34.72;;;24.60;;
40959;SDS011;27842;52.272;8.052;2023-04-23T02:46:03;33.88;;;24.20;;
40959;SDS011;27842;52.272;8.052;2023-04-23T02:48:36;32.45;;;23.90;;
40959;SDS011;27842;52.272;8.052;2023-04-23T02:51:03;34.95;;;25.45;;
40959;SDS011;27842;52.272;8.052;2023-04-23T02:53:30;32.88;;;24.13;;
40959;SDS011;27842;52.272;8.052;2023-04-23T02:55:56;35.90;;;25.02;;
40959;SDS011;27842;52.272;8.052;2023-04-23T02:58:22;35.47;;;25.25;;
40959;SDS011;27842;52.272;8.052;2023-04-23T03:00:47;33.90;;;25.23;;
40959;SDS011;27842;52.272;8.052;2023-04-23T03:03:13;36.83;;;26.25;;
40959;SDS011;27842;52.272;8.052;2023-04-23T03:05:38;36.58;;;26.85;;
40959;SDS011;27842;52.272;8.052;2023-04-23T03:08:04;37.35;;;27.48;;
40959;SDS011;27842;52.272;8.052;2023-04-23T03:10:30;36.42;;;27.13;;
40959;SDS011;27842;52.272;8.052;2023-04-23T03:12:55;38.53;;;28.48;;
40959;SDS011;27842;52.272;8.052;2023-04-23T03:15:21;36.92;;;26.15;;
40959;SDS011;27842;52.272;8.052;2023-04-23T03:17:46;39.30;;;28.13;;
40959;SDS011;27842;52.272;8.052;2023-04-23T03:20:12;38.00;;;27.65;;
40959;SDS011;27842;52.272;8.052;2023-04-23T03:22:38;36.45;;;27.25;;
40959;SDS011;27842;52.272;8.052;2023-04-23T03:25:04;39.08;;;28.27;;
40959;SDS011;27842;52.272;8.052;2023-04-23T03:27:30;38.35;;;28.42;;
40959;SDS011;27842;52.272;8.052;2023-04-23T03:29:56;40.13;;;28.45;;
40959;SDS011;27842;52.272;8.052;2023-04-23T03:32:22;39.10;;;28.10;;
40959;SDS011;27842;52.272;8.052;2023-04-23T03:34:48;38.80;;;28.63;;
40959;SDS011;27842;52.272;8.052;2023-04-23T03:37:13;41.17;;;30.70;;
40959;SDS011;27842;52.272;8.052;2023-04-23T03:39:39;41.10;;;30.73;;
40959;SDS011;27842;52.272;8.052;2023-04-23T03:42:04;41.28;;;29.88;;
40959;SDS011;27842;52.272;8.052;2023-04-23T03:44:30;41.50;;;30.73;;
40959;SDS011;27842;52.272;8.052;2023-04-23T03:46:55;40.88;;;30.05;;
40959;SDS011;27842;52.272;8.052;2023-04-23T03:49:21;41.97;;;31.20;;
40959;SDS011;27842;52.272;8.052;2023-04-23T03:51:47;40.58;;;29.48;;
40959;SDS011;27842;52.272;8.052;2023-04-23T03:54:12;42.45;;;30.38;;
40959;SDS011;27842;52.272;8.052;2023-04-23T03:56:38;40.72;;;30.25;;
40959;SDS011;27842;52.272;8.052;2023-04-23T03:59:03;43.08;;;32.25;;
40959;SDS011;27842;52.272;8.052;2023-04-23T04:01:29;43.85;;;32.40;;
40959;SDS011;27842;52.272;8.052;2023-04-23T04:03:56;46.33;;;32.35;;
40959;SDS011;27842;52.272;8.052;2023-04-23T04:06:22;45.75;;;32.30;;
40959;SDS011;27842;52.272;8.052;2023-04-23T04:08:48;46.30;;;32.75;;
40959;SDS011;27842;52.272;8.052;2023-04-23T04:11:13;45.13;;;32.17;;
40959;SDS011;27842;52.272;8.052;2023-04-23T04:13:39;44.35;;;31.38;;
40959;SDS011;27842;52.272;8.052;2023-04-23T04:16:04;45.10;;;32.28;;
40959;SDS011;27842;52.272;8.052;2023-04-23T04:18:30;44.40;;;31.98;;
40959;SDS011;27842;52.272;8.052;2023-04-23T04:20:56;43.90;;;31.08;;
40959;SDS011;27842;52.272;8.052;2023-04-23T04:23:21;44.22;;;32.63;;
40959;SDS011;27842;52.272;8.052;2023-04-23T04:25:47;45.78;;;32.40;;
40959;SDS011;27842;52.272;8.052;2023-04-23T04:28:15;45.13;;;32.83;;
40959;SDS011;27842;52.272;8.052;2023-04-23T04:30:40;44.55;;;30.83;;
40959;SDS011;27842;52.272;8.052;2023-04-23T04:33:06;42.67;;;31.90;;
40959;SDS011;27842;52.272;8.052;2023-04-23T04:35:33;45.03;;;33.47;;
40959;SDS011;27842;52.272;8.052;2023-04-23T04:37:58;45.80;;;32.92;;
40959;SDS011;27842;52.272;8.052;2023-04-23T04:40:25;44.50;;;32.42;;
40959;SDS011;27842;52.272;8.052;2023-04-23T04:42:51;43.95;;;31.73;;
40959;SDS011;27842;52.272;8.052;2023-04-23T04:45:17;44.65;;;31.05;;
40959;SDS011;27842;52.272;8.052;2023-04-23T04:47:43;45.65;;;32.47;;
40959;SDS011;27842;52.272;8.052;2023-04-23T04:50:09;46.22;;;32.65;;
40959;SDS011;27842;52.272;8.052;2023-04-23T04:52:35;45.53;;;31.77;;
40959;SDS011;27842;52.272;8.052;2023-04-23T04:55:01;46.88;;;32.83;;
40959;SDS011;27842;52.272;8.052;2023-04-23T04:57:26;46.10;;;32.63;;
40959;SDS011;27842;52.272;8.052;2023-04-23T04:59:52;47.70;;;32.70;;
40959;SDS011;27842;52.272;8.052;2023-04-23T05:02:18;45.25;;;33.10;;
40959;SDS011;27842;52.272;8.052;2023-04-23T05:04:45;47.03;;;33.13;;
40959;SDS011;27842;52.272;8.052;2023-04-23T05:07:10;45.10;;;32.47;;
40959;SDS011;27842;52.272;8.052;2023-04-23T05:09:36;41.95;;;31.15;;
40959;SDS011;27842;52.272;8.052;2023-04-23T05:12:02;45.55;;;32.83;;
40959;SDS011;27842;52.272;8.052;2023-04-23T05:14:27;48.70;;;34.42;;
40959;SDS011;27842;52.272;8.052;2023-04-23T05:16:53;46.47;;;32.03;;
40959;SDS011;27842;52.272;8.052;2023-04-23T05:19:19;44.22;;;32.03;;
40959;SDS011;27842;52.272;8.052;2023-04-23T05:21:44;46.63;;;33.65;;
40959;SDS011;27842;52.272;8.052;2023-04-23T05:24:10;49.55;;;33.80;;
40959;SDS011;27842;52.272;8.052;2023-04-23T05:26:36;48.05;;;33.80;;
40959;SDS011;27842;52.272;8.052;2023-04-23T05:29:02;43.85;;;31.45;;
40959;SDS011;27842;52.272;8.052;2023-04-23T05:31:28;46.40;;;32.85;;
40959;SDS011;27842;52.272;8.052;2023-04-23T05:33:53;45.00;;;32.92;;
40959;SDS011;27842;52.272;8.052;2023-04-23T05:36:19;46.17;;;33.42;;
40959;SDS011;27842;52.272;8.052;2023-04-23T05:38:45;46.88;;;31.90;;
40959;SDS011;27842;52.272;8.052;2023-04-23T05:41:11;45.25;;;31.90;;
40959;SDS011;27842;52.272;8.052;2023-04-23T05:43:36;49.10;;;32.33;;
40959;SDS011;27842;52.272;8.052;2023-04-23T05:46:02;47.28;;;33.15;;
40959;SDS011;27842;52.272;8.052;2023-04-23T05:48:30;46.75;;;32.88;;
40959;SDS011;27842;52.272;8.052;2023-04-23T05:50:55;47.70;;;31.85;;
40959;SDS011;27842;52.272;8.052;2023-04-23T05:53:21;46.28;;;32.58;;
40959;SDS011;27842;52.272;8.052;2023-04-23T05:55:47;45.97;;;31.63;;
40959;SDS011;27842;52.272;8.052;2023-04-23T05:58:16;48.83;;;32.72;;
40959;SDS011;27842;52.272;8.052;2023-04-23T06:00:43;44.97;;;32.78;;
40959;SDS011;27842;52.272;8.052;2023-04-23T06:03:09;48.20;;;32.88;;
40959;SDS011;27842;52.272;8.052;2023-04-23T06:05:34;49.00;;;32.75;;
40959;SDS011;27842;52.272;8.052;2023-04-23T06:08:02;50.53;;;33.58;;
40959;SDS011;27842;52.272;8.052;2023-04-23T06:10:28;48.55;;;32.80;;
40959;SDS011;27842;52.272;8.052;2023-04-23T06:12:53;49.85;;;33.35;;
40959;SDS011;27842;52.272;8.052;2023-04-23T06:15:19;47.22;;;33.30;;
40959;SDS011;27842;52.272;8.052;2023-04-23T06:17:45;51.58;;;34.03;;
40959;SDS011;27842;52.272;8.052;2023-04-23T06:20:10;46.95;;;33.05;;
40959;SDS011;27842;52.272;8.052;2023-04-23T06:22:36;48.75;;;33.35;;
40959;SDS011;27842;52.272;8.052;2023-04-23T06:25:02;48.35;;;33.25;;
40959;SDS011;27842;52.272;8.052;2023-04-23T06:27:28;50.28;;;33.90;;
40959;SDS011;27842;52.272;8.052;2023-04-23T06:29:54;51.95;;;34.13;;
40959;SDS011;27842;52.272;8.052;2023-04-23T06:32:20;53.90;;;35.40;;
40959;SDS011;27842;52.272;8.052;2023-04-23T06:34:45;52.20;;;33.92;;
40959;SDS011;27842;52.272;8.052;2023-04-23T06:37:11;51.13;;;34.03;;
40959;SDS011;27842;52.272;8.052;2023-04-23T06:39:36;52.30;;;35.55;;
40959;SDS011;27842;52.272;8.052;2023-04-23T06:42:02;52.22;;;35.33;;
40959;SDS011;27842;52.272;8.052;2023-04-23T06:44:27;51.88;;;35.22;;
40959;SDS011;27842;52.272;8.052;2023-04-23T06:46:53;51.38;;;34.72;;
40959;SDS011;27842;52.272;8.052;2023-04-23T06:49:19;47.88;;;33.38;;
40959;SDS011;27842;52.272;8.052;2023-04-23T06:51:44;50.95;;;34.33;;
40959;SDS011;27842;52.272;8.052;2023-04-23T06:54:10;52.45;;;33.17;;
40959;SDS011;27842;52.272;8.052;2023-04-23T06:56:35;48.35;;;33.13;;
40959;SDS011;27842;52.272;8.052;2023-04-23T06:59:01;40.38;;;27.95;;
40959;SDS011;27842;52.272;8.052;2023-04-23T07:01:27;41.20;;;26.50;;
40959;SDS011;27842;52.272;8.052;2023-04-23T07:03:52;37.72;;;24.70;;
40959;SDS011;27842;52.272;8.052;2023-04-23T07:06:18;37.22;;;23.88;;
40959;SDS011;27842;52.272;8.052;2023-04-23T07:08:44;35.55;;;22.55;;
40959;SDS011;27842;52.272;8.052;2023-04-23T07:11:10;37.55;;;23.92;;
40959;SDS011;27842;52.272;8.052;2023-04-23T07:13:36;34.33;;;22.98;;
40959;SDS011;27842;52.272;8.052;2023-04-23T07:16:02;38.78;;;24.45;;
40959;SDS011;27842;52.272;8.052;2023-04-23T07:18:27;32.92;;;22.30;;
40959;SDS011;27842;52.272;8.052;2023-04-23T07:20:53;33.35;;;20.65;;
40959;SDS011;27842;52.272;8.052;2023-04-23T07:23:19;33.17;;;20.00;;
40959;SDS011;27842;52.272;8.052;2023-04-23T07:25:44;32.47;;;20.52;;
40959;SDS011;27842;52.272;8.052;2023-04-23T07:28:13;30.52;;;20.35;;
40959;SDS011;27842;52.272;8.052;2023-04-23T07:30:38;29.67;;;18.92;;
40959;SDS011;27842;52.272;8.052;2023-04-23T07:33:04;31.35;;;21.00;;
40959;SDS011;27842;52.272;8.052;2023-04-23T07:35:30;31.05;;;18.92;;
40959;SDS011;27842;52.272;8.052;2023-04-23T07:37:56;28.17;;;18.77;;
40959;SDS011;27842;52.272;8.052;2023-04-23T07:40:22;28.40;;;17.42;;
40959;SDS011;27842;52.272;8.052;2023-04-23T07:42:49;30.27;;;17.33;;
40959;SDS011;27842;52.272;8.052;2023-04-23T07:45:15;27.40;;;17.38;;
40959;SDS011;27842;52.272;8.052;2023-04-23T07:47:41;26.20;;;15.85;;
40959;SDS011;27842;52.272;8.052;2023-04-23T07:50:07;23.35;;;14.57;;
40959;SDS011;27842;52.272;8.052;2023-04-23T07:52:33;21.88;;;13.35;;
40959;SDS011;27842;52.272;8.052;2023-04-23T07:54:59;22.25;;;12.40;;
40959;SDS011;27842;52.272;8.052;2023-04-23T07:57:24;22.60;;;12.45;;
40959;SDS011;27842;52.272;8.052;2023-04-23T07:59:50;22.48;;;12.10;;
40959;SDS011;27842;52.272;8.052;2023-04-23T08:02:15;22.52;;;13.77;;
40959;SDS011;27842;52.272;8.052;2023-04-23T08:04:42;24.73;;;15.13;;
40959;SDS011;27842;52.272;8.052;2023-04-23T08:07:07;22.48;;;14.15;;
40959;SDS011;27842;52.272;8.052;2023-04-23T08:09:33;24.50;;;14.25;;
40959;SDS011;27842;52.272;8.052;2023-04-23T08:11:59;22.40;;;13.45;;
40959;SDS011;27842;52.272;8.052;2023-04-23T08:14:25;23.08;;;14.05;;
40959;SDS011;27842;52.272;8.052;2023-04-23T08:16:51;23.88;;;14.55;;
40959;SDS011;27842;52.272;8.052;2023-04-23T08:19:17;25.33;;;14.93;;
40959;SDS011;27842;52.272;8.052;2023-04-23T08:21:42;23.85;;;14.40;;
40959;SDS011;27842;52.272;8.052;2023-04-23T08:24:08;25.13;;;15.80;;
40959;SDS011;27842;52.272;8.052;2023-04-23T08:26:33;25.02;;;15.25;;
40959;SDS011;27842;52.272;8.052;2023-04-23T08:28:59;23.92;;;15.15;;
40959;SDS011;27842;52.272;8.052;2023-04-23T08:31:25;22.17;;;14.40;;
40959;SDS011;27842;52.272;8.052;2023-04-23T08:33:51;24.50;;;13.68;;
40959;SDS011;27842;52.272;8.052;2023-04-23T08:36:16;23.55;;;14.43;;
40959;SDS011;27842;52.272;8.052;2023-04-23T08:38:42;23.92;;;14.20;;
40959;SDS011;27842;52.272;8.052;2023-04-23T08:41:09;22.05;;;13.43;;
40959;SDS011;27842;52.272;8.052;2023-04-23T08:44:22;21.77;;;13.33;;
40959;SDS011;27842;52.272;8.052;2023-04-23T08:46:31;23.30;;;13.05;;
40959;SDS011;27842;52.272;8.052;2023-04-23T08:51:26;21.92;;;12.63;;
40959;SDS011;27842;52.272;8.052;2023-04-23T08:53:55;21.88;;;12.65;;
40959;SDS011;27842;52.272;8.052;2023-04-23T08:56:23;22.38;;;13.50;;
40959;SDS011;27842;52.272;8.052;2023-04-23T08:58:49;22.25;;;12.93;;
40959;SDS011;27842;52.272;8.052;2023-04-23T09:01:15;21.63;;;13.02;;
40959;SDS011;27842;52.272;8.052;2023-04-23T09:03:41;22.35;;;13.82;;
40959;SDS011;27842;52.272;8.052;2023-04-23T09:06:07;20.48;;;12.85;;
40959;SDS011;27842;52.272;8.052;2023-04-23T09:08:33;21.38;;;13.23;;
40959;SDS011;27842;52.272;8.052;2023-04-23T09:10:59;21.90;;;13.40;;
40959;SDS011;27842;52.272;8.052;2023-04-23T09:13:26;21.23;;;11.52;;
40959;SDS011;27842;52.272;8.052;2023-04-23T09:15:53;19.50;;;11.38;;
40959;SDS011;27842;52.272;8.052;2023-04-23T09:18:19;17.95;;;10.13;;
40959;SDS011;27842;52.272;8.052;2023-04-23T09:20:45;17.52;;;10.50;;
40959;SDS011;27842;52.272;8.052;2023-04-23T09:23:13;19.27;;;10.45;;
40959;SDS011;27842;52.272;8.052;2023-04-23T09:25:39;20.30;;;11.05;;
40959;SDS011;27842;52.272;8.052;2023-04-23T09:28:08;18.10;;;10.27;;
40959;SDS011;27842;52.272;8.052;2023-04-23T09:30:38;18.55;;;10.50;;
40959;SDS011;27842;52.272;8.052;2023-04-23T09:33:11;19.38;;;10.35;;
40959;SDS011;27842;52.272;8.052;2023-04-23T09:35:37;17.77;;;9.57;;
40959;SDS011;27842;52.272;8.052;2023-04-23T09:38:03;19.50;;;10.23;;
40959;SDS011;27842;52.272;8.052;2023-04-23T09:40:32;18.45;;;10.43;;
40959;SDS011;27842;52.272;8.052;2023-04-23T09:42:58;17.88;;;9.98;;
40959;SDS011;27842;52.272;8.052;2023-04-23T09:45:23;19.38;;;9.85;;
40959;SDS011;27842;52.272;8.052;2023-04-23T09:47:50;18.35;;;9.30;;
40959;SDS011;27842;52.272;8.052;2023-04-23T09:50:33;18.70;;;9.60;;
40959;SDS011;27842;52.272;8.052;2023-04-23T09:53:01;18.30;;;10.02;;
40959;SDS011;27842;52.272;8.052;2023-04-23T09:55:31;16.52;;;9.02;;
40959;SDS011;27842;52.272;8.052;2023-04-23T09:58:06;18.23;;;9.23;;
40959;SDS011;27842;52.272;8.052;2023-04-23T10:00:37;18.58;;;10.45;;
40959;SDS011;27842;52.272;8.052;2023-04-23T10:03:04;16.15;;;8.73;;
40959;SDS011;27842;52.272;8.052;2023-04-23T10:05:40;18.65;;;9.43;;
40959;SDS011;27842;52.272;8.052;2023-04-23T10:08:07;16.60;;;8.35;;
40959;SDS011;27842;52.272;8.052;2023-04-23T10:10:33;18.27;;;8.70;;
40959;SDS011;27842;52.272;8.052;2023-04-23T10:13:00;16.80;;;7.85;;
40959;SDS011;27842;52.272;8.052;2023-04-23T10:15:26;17.77;;;8.02;;
40959;SDS011;27842;52.272;8.052;2023-04-23T10:17:52;16.75;;;8.00;;
40959;SDS011;27842;52.272;8.052;2023-04-23T10:20:19;15.65;;;6.65;;
40959;SDS011;27842;52.272;8.052;2023-04-23T10:22:46;15.70;;;6.75;;
40959;SDS011;27842;52.272;8.052;2023-04-23T10:25:12;15.90;;;7.55;;
40959;SDS011;27842;52.272;8.052;2023-04-23T10:27:39;15.35;;;6.68;;
40959;SDS011;27842;52.272;8.052;2023-04-23T10:30:06;15.43;;;7.10;;
40959;SDS011;27842;52.272;8.052;2023-04-23T10:32:33;12.93;;;6.45;;
40959;SDS011;27842;52.272;8.052;2023-04-23T10:34:59;12.45;;;5.85;;
40959;SDS011;27842;52.272;8.052;2023-04-23T10:37:24;16.33;;;5.70;;
40959;SDS011;27842;52.272;8.052;2023-04-23T10:39:54;13.10;;;5.47;;
40959;SDS011;27842;52.272;8.052;2023-04-23T10:42:23;13.68;;;5.65;;
40959;SDS011;27842;52.272;8.052;2023-04-23T10:44:49;13.35;;;4.90;;
40959;SDS011;27842;52.272;8.052;2023-04-23T10:47:15;14.48;;;5.03;;
40959;SDS011;27842;52.272;8.052;2023-04-23T10:49:41;14.40;;;5.10;;
40959;SDS011;27842;52.272;8.052;2023-04-23T10:54:42;10.43;;;4.45;;
40959;SDS011;27842;52.272;8.052;2023-04-23T10:57:08;11.85;;;4.13;;
40959;SDS011;27842;52.272;8.052;2023-04-23T10:59:37;13.07;;;4.50;;
40959;SDS011;27842;52.272;8.052;2023-04-23T11:02:10;13.35;;;3.90;;
40959;SDS011;27842;52.272;8.052;2023-04-23T11:04:41;14.27;;;5.13;;
40959;SDS011;27842;52.272;8.052;2023-04-23T11:07:10;13.27;;;4.93;;
40959;SDS011;27842;52.272;8.052;2023-04-23T11:09:41;11.45;;;4.35;;
40959;SDS011;27842;52.272;8.052;2023-04-23T11:12:12;12.65;;;4.35;;
40959;SDS011;27842;52.272;8.052;2023-04-23T11:15:08;10.77;;;4.50;;
40959;SDS011;27842;52.272;8.052;2023-04-23T11:22:44;11.13;;;4.18;;
40959;SDS011;27842;52.272;8.052;2023-04-23T11:25:15;9.93;;;3.40;;
40959;SDS011;27842;52.272;8.052;2023-04-23T11:27:48;9.07;;;2.83;;
40959;SDS011;27842;52.272;8.052;2023-04-23T11:30:18;10.25;;;3.53;;
40959;SDS011;27842;52.272;8.052;2023-04-23T11:32:50;10.45;;;3.92;;
40959;SDS011;27842;52.272;8.052;2023-04-23T11:35:17;13.45;;;4.30;;
40959;SDS011;27842;52.272;8.052;2023-04-23T11:37:45;11.18;;;3.80;;
40959;SDS011;27842;52.272;8.052;2023-04-23T11:40:13;9.40;;;3.63;;
40959;SDS011;27842;52.272;8.052;2023-04-23T11:42:43;12.43;;;3.88;;
40959;SDS011;27842;52.272;8.052;2023-04-23T11:47:44;10.93;;;3.88;;
40959;SDS011;27842;52.272;8.052;2023-04-23T11:50:21;12.25;;;4.30;;
40959;SDS011;27842;52.272;8.052;2023-04-23T11:52:48;10.23;;;3.83;;
40959;SDS011;27842;52.272;8.052;2023-04-23T11:55:15;9.38;;;3.58;;
40959;SDS011;27842;52.272;8.052;2023-04-23T11:57:44;10.32;;;3.58;;
40959;SDS011;27842;52.272;8.052;2023-04-23T12:05:20;8.75;;;3.63;;
40959;SDS011;27842;52.272;8.052;2023-04-23T12:07:52;11.70;;;4.00;;
40959;SDS011;27842;52.272;8.052;2023-04-23T12:10:19;11.98;;;3.38;;
40959;SDS011;27842;52.272;8.052;2023-04-23T12:12:51;10.55;;;3.30;;
40959;SDS011;27842;52.272;8.052;2023-04-23T12:15:17;11.10;;;3.88;;
40959;SDS011;27842;52.272;8.052;2023-04-23T12:17:47;11.27;;;3.55;;
40959;SDS011;27842;52.272;8.052;2023-04-23T12:20:18;10.52;;;2.92;;
40959;SDS011;27842;52.272;8.052;2023-04-23T12:22:45;9.32;;;2.85;;
40959;SDS011;27842;52.272;8.052;2023-04-23T12:25:11;9.05;;;3.00;;
40959;SDS011;27842;52.272;8.052;2023-04-23T12:27:49;6.95;;;2.40;;
40959;SDS011;27842;52.272;8.052;2023-04-23T12:30:14;10.18;;;2.83;;
40959;SDS011;27842;52.272;8.052;2023-04-23T12:32:40;10.73;;;3.63;;
40959;SDS011;27842;52.272;8.052;2023-04-23T12:35:05;14.02;;;3.45;;
40959;SDS011;27842;52.272;8.052;2023-04-23T12:37:34;8.03;;;2.80;;
40959;SDS011;27842;52.272;8.052;2023-04-23T12:40:01;12.13;;;2.78;;
40959;SDS011;27842;52.272;8.052;2023-04-23T12:42:31;10.60;;;3.20;;
40959;SDS011;27842;52.272;8.052;2023-04-23T12:45:03;10.00;;;2.97;;
40959;SDS011;27842;52.272;8.052;2023-04-23T12:47:33;8.60;;;2.83;;
40959;SDS011;27842;52.272;8.052;2023-04-23T12:49:58;8.68;;;2.83;;
40959;SDS011;27842;52.272;8.052;2023-04-23T12:52:25;11.60;;;3.00;;
40959;SDS011;27842;52.272;8.052;2023-04-23T12:54:51;10.02;;;2.80;;
40959;SDS011;27842;52.272;8.052;2023-04-23T12:57:20;11.68;;;2.90;;
40959;SDS011;27842;52.272;8.052;2023-04-23T12:59:47;7.50;;;2.45;;
40959;SDS011;27842;52.272;8.052;2023-04-23T13:02:13;7.93;;;2.28;;
40959;SDS011;27842;52.272;8.052;2023-04-23T13:04:38;6.95;;;2.58;;
40959;SDS011;27842;52.272;8.052;2023-04-23T13:07:04;5.97;;;2.33;;
40959;SDS011;27842;52.272;8.052;2023-04-23T13:09:30;8.23;;;2.15;;
40959;SDS011;27842;52.272;8.052;2023-04-23T13:11:55;6.25;;;2.10;;
40959;SDS011;27842;52.272;8.052;2023-04-23T13:14:21;10.10;;;2.25;;
40959;SDS011;27842;52.272;8.052;2023-04-23T13:16:47;9.25;;;2.60;;
40959;SDS011;27842;52.272;8.052;2023-04-23T13:19:13;3.97;;;1.73;;
40959;SDS011;27842;52.272;8.052;2023-04-23T13:21:40;8.35;;;1.95;;
40959;SDS011;27842;52.272;8.052;2023-04-23T13:24:06;6.93;;;2.10;;
40959;SDS011;27842;52.272;8.052;2023-04-23T13:26:33;8.38;;;1.90;;
40959;SDS011;27842;52.272;8.052;2023-04-23T13:28:59;10.80;;;1.80;;
40959;SDS011;27842;52.272;8.052;2023-04-23T13:31:25;7.70;;;1.77;;
40959;SDS011;27842;52.272;8.052;2023-04-23T13:33:51;6.90;;;1.80;;
40959;SDS011;27842;52.272;8.052;2023-04-23T13:36:17;8.32;;;1.80;;
40959;SDS011;27842;52.272;8.052;2023-04-23T13:38:43;8.70;;;2.17;;
40959;SDS011;27842;52.272;8.052;2023-04-23T13:41:09;6.28;;;2.10;;
40959;SDS011;27842;52.272;8.052;2023-04-23T13:43:34;6.70;;;2.00;;
40959;SDS011;27842;52.272;8.052;2023-04-23T13:46:00;5.78;;;1.70;;
40959;SDS011;27842;52.272;8.052;2023-04-23T13:48:26;8.75;;;2.10;;
40959;SDS011;27842;52.272;8.052;2023-04-23T13:50:55;7.43;;;1.90;;
40959;SDS011;27842;52.272;8.052;2023-04-23T13:53:24;7.95;;;1.90;;
40959;SDS011;27842;52.272;8.052;2023-04-23T13:55:51;7.43;;;2.05;;
40959;SDS011;27842;52.272;8.052;2023-04-23T13:58:17;10.20;;;2.20;;
40959;SDS011;27842;52.272;8.052;2023-04-23T14:00:43;7.22;;;2.08;;
40959;SDS011;27842;52.272;8.052;2023-04-23T14:03:09;8.13;;;2.10;;
40959;SDS011;27842;52.272;8.052;2023-04-23T14:05:34;8.20;;;2.05;;
40959;SDS011;27842;52.272;8.052;2023-04-23T14:08:00;10.38;;;2.08;;
40959;SDS011;27842;52.272;8.052;2023-04-23T14:10:26;6.30;;;1.98;;
40959;SDS011;27842;52.272;8.052;2023-04-23T14:12:51;11.40;;;2.13;;
40959;SDS011;27842;52.272;8.052;2023-04-23T14:15:18;8.65;;;2.30;;
40959;SDS011;27842;52.272;8.052;2023-04-23T14:17:44;7.47;;;2.22;;
40959;SDS011;27842;52.272;8.052;2023-04-23T14:20:10;8.07;;;1.85;;
40959;SDS011;27842;52.272;8.052;2023-04-23T14:22:39;9.32;;;2.00;;
40959;SDS011;27842;52.272;8.052;2023-04-23T14:25:09;7.00;;;2.00;;
40959;SDS011;27842;52.272;8.052;2023-04-23T14:27:40;9.27;;;2.10;;
40959;SDS011;27842;52.272;8.052;2023-04-23T14:30:19;9.07;;;2.97;;
40959;SDS011;27842;52.272;8.052;2023-04-23T14:32:45;8.85;;;2.30;;
40959;SDS011;27842;52.272;8.052;2023-04-23T14:35:12;8.80;;;2.20;;
40959;SDS011;27842;52.272;8.052;2023-04-23T14:37:38;11.43;;;3.50;;
40959;SDS011;27842;52.272;8.052;2023-04-23T14:40:08;8.43;;;1.95;;
40959;SDS011;27842;52.272;8.052;2023-04-23T14:42:37;9.88;;;2.72;;
40959;SDS011;27842;52.272;8.052;2023-04-23T14:45:03;7.47;;;2.58;;